Time;durP1;ratioP1;P1;durP2;ratioP2;P2;SDS_P1;SDS_P2;PMS_P1;PMS_P2;Temp;Humidity;BMP_temperature;BMP_pressure;BME280_temperature;BME280_humidity;BME280_pressure;Samples;Min_cycle;Max_cycle;Signal;HPM_P1;HPM_P2
2024/01/07 04:15:44;;;;;;;1999.90;999.90;;;;;;;;;;5185995;22;20571;-70
2024/01/07 04:18:29;;;;;;;1999.90;999.90;;;;;;;;;;5035531;28;20504;-69
2024/01/07 04:21:14;;;;;;;1999.90;999.90;;;;;;;;;;5033347;28;20442;-70
2024/01/07 04:23:59;;;;;;;1999.90;999.90;;;;;;;;;;5023945;28;20471;-70
2024/01/07 04:26:44;;;;;;;1999.90;999.90;;;;;;;;;;4995193;28;20427;-69
2024/01/07 04:29:29;;;;;;;1999.90;999.90;;;;;;;;;;4995047;28;20333;-70
2024/01/07 04:32:15;;;;;;;1999.90;999.90;;;;;;;;;;5010591;28;20428;-69
2024/01/07 04:34:59;;;;;;;1999.90;999.90;;;;;;;;;;5008793;28;20312;-70
2024/01/07 04:37:44;;;;;;;1999.90;999.90;;;;;;;;;;5006407;28;20458;-70
2024/01/07 04:40:29;;;;;;;1999.90;999.90;;;;;;;;;;5014470;28;20205;-69
2024/01/07 04:43:14;;;;;;;1999.90;999.90;;;;;;;;;;5014640;28;20206;-70
2024/01/07 04:45:59;;;;;;;1999.90;999.90;;;;;;;;;;5014448;28;20256;-70
2024/01/07 04:48:45;;;;;;;1999.90;999.90;;;;;;;;;;5012011;28;20550;-70
2024/01/07 04:51:30;;;;;;;1999.90;999.90;;;;;;;;;;5014147;28;20254;-70
2024/01/07 04:54:15;;;;;;;1999.90;999.90;;;;;;;;;;5013569;28;20228;-70
2024/01/07 04:56:59;;;;;;;1999.90;999.90;;;;;;;;;;5014214;28;20213;-70
2024/01/07 04:59:44;;;;;;;1999.90;999.90;;;;;;;;;;5014142;28;20330;-69
2024/01/07 05:02:29;;;;;;;1999.90;999.90;;;;;;;;;;5013406;28;20824;-69
2024/01/07 05:05:16;;;;;;;1999.90;999.90;;;;;;;;;;4995967;28;20528;-68
2024/01/07 05:08:01;;;;;;;1999.90;999.90;;;;;;;;;;4994422;28;20218;-70
2024/01/07 05:10:46;;;;;;;1999.90;999.90;;;;;;;;;;5005936;28;20297;-69
2024/01/07 05:13:31;;;;;;;1999.90;999.90;;;;;;;;;;5013768;28;20571;-69
2024/01/07 05:16:20;;;;;;;1999.90;999.90;;;;;;;;;;5009005;28;20435;-70
2024/01/07 05:19:05;;;;;;;1999.90;999.90;;;;;;;;;;5014034;28;20296;-69
2024/01/07 05:21:51;;;;;;;1999.90;999.90;;;;;;;;;;5013878;28;20206;-69
2024/01/07 05:24:37;;;;;;;1999.90;999.90;;;;;;;;;;5005191;28;20234;-70
2024/01/07 05:27:22;;;;;;;1999.90;999.90;;;;;;;;;;5009249;28;20206;-70
2024/01/07 05:30:08;;;;;;;1999.90;999.90;;;;;;;;;;5012691;28;20230;-70
2024/01/07 05:32:53;;;;;;;1999.90;999.90;;;;;;;;;;5006041;28;20541;-70
2024/01/07 05:35:38;;;;;;;1999.90;999.90;;;;;;;;;;5013239;28;20226;-69
2024/01/07 05:38:24;;;;;;;1999.90;999.90;;;;;;;;;;5012290;28;20229;-70
2024/01/07 05:41:09;;;;;;;1999.90;999.90;;;;;;;;;;5013621;28;20495;-69
2024/01/07 05:43:54;;;;;;;1999.90;999.90;;;;;;;;;;5005796;28;20237;-70
2024/01/07 05:46:40;;;;;;;1999.90;999.90;;;;;;;;;;5013782;28;20225;-70
2024/01/07 05:49:25;;;;;;;1999.90;999.90;;;;;;;;;;5009781;28;20210;-70
2024/01/07 05:52:10;;;;;;;1999.90;999.90;;;;;;;;;;5011969;28;20216;-70
2024/01/07 05:54:56;;;;;;;1999.90;999.90;;;;;;;;;;5010906;28;20544;-70
2024/01/07 05:57:41;;;;;;;1999.90;999.90;;;;;;;;;;5011787;28;20588;-70
2024/01/07 06:00:26;;;;;;;1999.90;999.90;;;;;;;;;;5011709;28;20206;-70
2024/01/07 06:03:11;;;;;;;1999.90;999.90;;;;;;;;;;5007575;28;20484;-70
2024/01/07 06:05:56;;;;;;;1999.90;999.90;;;;;;;;;;5008191;28;20214;-69
2024/01/07 06:08:41;;;;;;;1999.90;999.90;;;;;;;;;;5011393;28;20510;-70
2024/01/07 06:11:27;;;;;;;1999.90;999.90;;;;;;;;;;5012876;28;20419;-70
2024/01/07 06:14:13;;;;;;;1999.90;999.90;;;;;;;;;;5012555;28;20482;-70
2024/01/07 06:16:58;;;;;;;1999.90;999.90;;;;;;;;;;5012968;28;20772;-70
2024/01/07 06:19:43;;;;;;;1999.90;999.90;;;;;;;;;;5012564;28;20424;-69
2024/01/07 06:22:27;;;;;;;1999.90;999.90;;;;;;;;;;5012797;28;20495;-70
2024/01/07 06:25:12;;;;;;;1999.90;999.90;;;;;;;;;;5012259;28;20841;-70
2024/01/07 06:27:59;;;;;;;1999.90;999.90;;;;;;;;;;5012760;28;20434;-70
2024/01/07 06:30:44;;;;;;;1999.90;999.90;;;;;;;;;;5012854;28;20418;-70
2024/01/07 06:33:28;;;;;;;1999.90;999.90;;;;;;;;;;5012675;28;20220;-69
2024/01/07 06:36:14;;;;;;;1999.90;999.90;;;;;;;;;;5012633;28;20544;-70
2024/01/07 06:38:59;;;;;;;1999.90;999.90;;;;;;;;;;5012699;28;20580;-70
2024/01/07 06:41:44;;;;;;;1999.90;999.90;;;;;;;;;;5012277;28;21021;-70
2024/01/07 06:44:30;;;;;;;1999.90;999.90;;;;;;;;;;5012046;28;20333;-70
2024/01/07 06:47:15;;;;;;;1999.90;999.90;;;;;;;;;;5011163;28;21024;-70
2024/01/07 06:50:00;;;;;;;1999.90;999.90;;;;;;;;;;5012170;28;20340;-70
2024/01/07 06:52:45;;;;;;;1999.90;999.90;;;;;;;;;;5012435;28;20416;-70
2024/01/07 06:55:30;;;;;;;1999.90;999.90;;;;;;;;;;5012093;28;20844;-70
2024/01/07 06:58:15;;;;;;;1999.90;999.90;;;;;;;;;;5012260;28;20420;-70
2024/01/07 07:01:01;;;;;;;1999.90;999.90;;;;;;;;;;5012449;28;20419;-70
2024/01/07 07:03:46;;;;;;;1999.90;999.90;;;;;;;;;;5011777;28;21019;-69
2024/01/07 07:06:31;;;;;;;1999.90;999.90;;;;;;;;;;5012165;28;20425;-70
2024/01/07 07:09:16;;;;;;;1999.90;999.90;;;;;;;;;;5012289;28;20426;-70
2024/01/07 07:12:00;;;;;;;1999.90;999.90;;;;;;;;;;5009746;28;20533;-70
2024/01/07 07:14:45;;;;;;;1999.90;999.90;;;;;;;;;;5011280;28;20234;-70
2024/01/07 07:17:32;;;;;;;1999.90;999.90;;;;;;;;;;5013986;28;20713;-70
2024/01/07 07:20:16;;;;;;;1999.90;999.90;;;;;;;;;;5016193;28;20424;-70
2024/01/07 07:23:01;;;;;;;1999.90;999.90;;;;;;;;;;4996621;28;20787;-70
2024/01/07 07:25:46;;;;;;;1999.90;999.90;;;;;;;;;;4995892;28;20471;-70
2024/01/07 07:28:31;;;;;;;1999.90;999.90;;;;;;;;;;4996488;28;20266;-69
2024/01/07 07:31:16;;;;;;;1999.90;999.90;;;;;;;;;;5004908;28;20494;-70
2024/01/07 07:34:02;;;;;;;1999.90;999.90;;;;;;;;;;5015624;28;20489;-69
2024/01/07 07:36:47;;;;;;;1999.90;999.90;;;;;;;;;;5016108;28;20201;-71
2024/01/07 07:39:32;;;;;;;1999.90;999.90;;;;;;;;;;5015690;28;20415;-70
2024/01/07 07:42:17;;;;;;;1999.90;999.90;;;;;;;;;;5015956;28;21168;-70
2024/01/07 07:45:02;;;;;;;1999.90;999.90;;;;;;;;;;5015289;28;20553;-71
2024/01/07 07:47:47;;;;;;;1999.90;999.90;;;;;;;;;;5015866;28;20446;-69
2024/01/07 07:50:33;;;;;;;1999.90;999.90;;;;;;;;;;5015689;28;20405;-71
2024/01/07 07:53:18;;;;;;;1999.90;999.90;;;;;;;;;;5015641;28;20916;-70
2024/01/07 07:56:03;;;;;;;1999.90;999.90;;;;;;;;;;5015438;28;20427;-70
2024/01/07 07:58:49;;;;;;;1999.90;999.90;;;;;;;;;;5015893;28;20425;-71
2024/01/07 08:01:34;;;;;;;1999.90;999.90;;;;;;;;;;5015633;28;20412;-70
2024/01/07 08:04:19;;;;;;;1999.90;999.90;;;;;;;;;;5015151;28;20438;-70
2024/01/07 08:07:05;;;;;;;1999.90;999.90;;;;;;;;;;5015265;28;20424;-70
2024/01/07 08:09:50;;;;;;;1999.90;999.90;;;;;;;;;;5014406;28;20427;-70
2024/01/07 08:12:35;;;;;;;1999.90;999.90;;;;;;;;;;5009662;28;20268;-69
2024/01/07 08:15:20;;;;;;;1999.90;999.90;;;;;;;;;;5010974;28;20987;-70
2024/01/07 08:18:06;;;;;;;1999.90;999.90;;;;;;;;;;5010733;28;20450;-69
2024/01/07 08:20:51;;;;;;;1999.90;999.90;;;;;;;;;;5007804;28;20259;-69
2024/01/07 08:23:37;;;;;;;1999.90;999.90;;;;;;;;;;5007474;28;20451;-70
2024/01/07 08:26:22;;;;;;;1999.90;999.90;;;;;;;;;;5011386;28;20470;-70
2024/01/07 08:29:08;;;;;;;1999.90;999.90;;;;;;;;;;5010139;28;20456;-70
2024/01/07 08:31:52;;;;;;;1999.90;999.90;;;;;;;;;;5011521;28;20451;-70
2024/01/07 08:34:38;;;;;;;1999.90;999.90;;;;;;;;;;5011915;28;20438;-70
2024/01/07 08:37:23;;;;;;;1999.90;999.90;;;;;;;;;;5007586;28;20452;-70
2024/01/07 08:40:10;;;;;;;1999.90;999.90;;;;;;;;;;5007454;28;20541;-70
2024/01/07 08:42:55;;;;;;;1999.90;999.90;;;;;;;;;;5009263;28;20447;-69
2024/01/07 08:45:40;;;;;;;1999.90;999.90;;;;;;;;;;5011113;28;20243;-70
2024/01/07 08:48:25;;;;;;;1999.90;999.90;;;;;;;;;;5010726;28;20426;-70
2024/01/07 08:51:10;;;;;;;1999.90;999.90;;;;;;;;;;5010299;28;20556;-70
2024/01/07 08:53:55;;;;;;;1999.90;999.90;;;;;;;;;;5011631;28;20436;-70
2024/01/07 08:56:41;;;;;;;1999.90;999.90;;;;;;;;;;5011574;28;20427;-71
2024/01/07 08:59:26;;;;;;;1999.90;999.90;;;;;;;;;;5010204;28;20555;-71
2024/01/07 09:02:11;;;;;;;1999.90;999.90;;;;;;;;;;5011035;28;20418;-71
2024/01/07 09:04:57;;;;;;;1999.90;999.90;;;;;;;;;;5008823;28;20465;-72
2024/01/07 09:07:42;;;;;;;1999.90;999.90;;;;;;;;;;5011337;28;20952;-70
2024/01/07 09:10:27;;;;;;;1999.90;999.90;;;;;;;;;;5009964;28;20435;-70
2024/01/07 09:13:13;;;;;;;1999.90;999.90;;;;;;;;;;5007534;28;20450;-71
2024/01/07 09:15:58;;;;;;;1999.90;999.90;;;;;;;;;;5009819;28;20455;-71
2024/01/07 09:18:44;;;;;;;1999.90;999.90;;;;;;;;;;5011052;28;20942;-70
2024/01/07 09:21:29;;;;;;;1999.90;999.90;;;;;;;;;;5011212;28;20450;-70
2024/01/07 09:24:15;;;;;;;1999.90;999.90;;;;;;;;;;5009752;28;20552;-70
2024/01/07 09:27:00;;;;;;;1999.90;999.90;;;;;;;;;;5007050;28;20980;-70
2024/01/07 09:29:46;;;;;;;1999.90;999.90;;;;;;;;;;5008074;28;20437;-70
2024/01/07 09:32:31;;;;;;;1999.90;999.90;;;;;;;;;;5008938;28;21075;-70
2024/01/07 09:35:16;;;;;;;1999.90;999.90;;;;;;;;;;5011365;28;20563;-70
2024/01/07 09:38:01;;;;;;;1999.90;999.90;;;;;;;;;;5008953;28;20510;-70
2024/01/07 09:40:46;;;;;;;1999.90;999.90;;;;;;;;;;5006722;28;20913;-70
2024/01/07 09:43:31;;;;;;;1999.90;999.90;;;;;;;;;;5008856;28;20206;-71
2024/01/07 09:46:17;;;;;;;1999.90;999.90;;;;;;;;;;5006578;28;21021;-70
2024/01/07 09:49:02;;;;;;;1999.90;999.90;;;;;;;;;;5008310;28;20982;-70
2024/01/07 09:51:48;;;;;;;1999.90;999.90;;;;;;;;;;5008695;28;20456;-71
2024/01/07 09:54:34;;;;;;;1999.90;999.90;;;;;;;;;;5007716;28;20376;-68
2024/01/07 09:57:19;;;;;;;1999.90;999.90;;;;;;;;;;5010266;28;20923;-69
2024/01/07 10:00:05;;;;;;;1999.90;999.90;;;;;;;;;;5010368;28;20835;-70
2024/01/07 10:02:51;;;;;;;1999.90;999.90;;;;;;;;;;5010073;28;21004;-69
2024/01/07 10:05:36;;;;;;;1999.90;999.90;;;;;;;;;;5009838;28;20516;-69
2024/01/07 10:08:21;;;;;;;1999.90;999.90;;;;;;;;;;5009001;28;20628;-70
2024/01/07 10:11:09;;;;;;;1999.90;999.90;;;;;;;;;;5010607;28;20692;-69
2024/01/07 10:13:54;;;;;;;1999.90;999.90;;;;;;;;;;5009091;28;20603;-70
2024/01/07 10:16:39;;;;;;;1999.90;999.90;;;;;;;;;;5008013;28;20501;-71
2024/01/07 10:19:25;;;;;;;1999.90;999.90;;;;;;;;;;5007631;28;20288;-70
2024/01/07 10:22:12;;;;;;;1999.90;999.90;;;;;;;;;;5008746;28;20431;-70
2024/01/07 10:24:58;;;;;;;1999.90;999.90;;;;;;;;;;5006160;28;20518;-72
2024/01/07 10:27:43;;;;;;;1999.90;999.90;;;;;;;;;;5006752;28;20705;-71
2024/01/07 10:30:28;;;;;;;1999.90;999.90;;;;;;;;;;5008301;28;20431;-72
2024/01/07 10:33:13;;;;;;;1999.90;999.90;;;;;;;;;;5009957;28;20952;-73
2024/01/07 10:36:03;;;;;;;1999.90;999.90;;;;;;;;;;5011059;28;20416;-72
2024/01/07 10:38:49;;;;;;;1999.90;999.90;;;;;;;;;;5010680;28;20472;-72
2024/01/07 10:41:35;;;;;;;1999.90;999.90;;;;;;;;;;5007255;28;20459;-72
2024/01/07 10:44:21;;;;;;;1999.90;999.90;;;;;;;;;;5004833;28;20472;-72
2024/01/07 10:47:07;;;;;;;1999.90;999.90;;;;;;;;;;5008213;28;20836;-71
2024/01/07 10:49:52;;;;;;;1999.90;999.90;;;;;;;;;;5007873;28;20427;-71
2024/01/07 10:52:40;;;;;;;1999.90;999.90;;;;;;;;;;5004496;28;20454;-72
2024/01/07 10:55:26;;;;;;;1999.90;999.90;;;;;;;;;;5005228;28;20426;-71
2024/01/07 10:58:12;;;;;;;1999.90;999.90;;;;;;;;;;5003329;28;20209;-72
2024/01/07 11:00:59;;;;;;;1999.90;999.90;;;;;;;;;;5007899;28;20466;-71
2024/01/07 11:03:46;;;;;;;1999.90;999.90;;;;;;;;;;5008930;28;20481;-69
2024/01/07 11:06:34;;;;;;;1999.90;999.90;;;;;;;;;;5007102;28;21014;-71
2024/01/07 11:09:23;;;;;;;1999.90;999.90;;;;;;;;;;5008983;28;20467;-71
2024/01/07 11:12:09;;;;;;;1999.90;999.90;;;;;;;;;;5008965;28;20444;-70
2024/01/07 11:14:56;;;;;;;1999.90;999.90;;;;;;;;;;5008248;28;20495;-71
2024/01/07 11:17:45;;;;;;;1999.90;999.90;;;;;;;;;;5008515;28;20985;-70
2024/01/07 11:20:32;;;;;;;1999.90;999.90;;;;;;;;;;5008255;28;20267;-71
2024/01/07 11:23:30;;;;;;;1999.90;999.90;;;;;;;;;;5007101;28;20578;-70
2024/01/07 11:26:17;;;;;;;1999.90;999.90;;;;;;;;;;5008292;28;20253;-71
2024/01/07 11:29:03;;;;;;;1999.90;999.90;;;;;;;;;;5008205;28;20423;-69
2024/01/07 11:31:48;;;;;;;1999.90;999.90;;;;;;;;;;5007919;28;20471;-70
2024/01/07 11:34:39;;;;;;;1999.90;999.90;;;;;;;;;;5004998;28;20233;-70
2024/01/07 11:37:24;;;;;;;1999.90;999.90;;;;;;;;;;5005744;28;20509;-72
2024/01/07 11:40:11;;;;;;;1999.90;999.90;;;;;;;;;;5009409;28;20420;-71
2024/01/07 11:42:58;;;;;;;1999.90;999.90;;;;;;;;;;5008801;28;20452;-71
2024/01/07 11:45:43;;;;;;;1999.90;999.90;;;;;;;;;;5008495;28;20500;-72
2024/01/07 11:48:28;;;;;;;1999.90;999.90;;;;;;;;;;5009568;28;21062;-72
2024/01/07 11:51:13;;;;;;;1999.90;999.90;;;;;;;;;;5007942;28;20812;-72
2024/01/07 11:53:58;;;;;;;1999.90;999.90;;;;;;;;;;5008428;28;20981;-72
2024/01/07 11:56:43;;;;;;;1999.90;999.90;;;;;;;;;;5007060;28;20497;-72
2024/01/07 11:59:31;;;;;;;1999.90;999.90;;;;;;;;;;5006975;28;20432;-72
2024/01/07 12:02:17;;;;;;;1999.90;999.90;;;;;;;;;;5005735;28;20449;-72
2024/01/07 12:05:02;;;;;;;1999.90;999.90;;;;;;;;;;5008707;28;20471;-72
2024/01/07 12:07:47;;;;;;;1999.90;999.90;;;;;;;;;;5008043;28;21030;-71
2024/01/07 12:10:32;;;;;;;1999.90;999.90;;;;;;;;;;5006740;28;20915;-72
2024/01/07 12:13:17;;;;;;;1999.90;999.90;;;;;;;;;;5014981;28;20813;-71
2024/01/07 12:16:03;;;;;;;1999.90;999.90;;;;;;;;;;5013933;28;20420;-72
2024/01/07 12:18:48;;;;;;;1999.90;999.90;;;;;;;;;;5009539;28;20207;-71
2024/01/07 12:21:33;;;;;;;1999.90;999.90;;;;;;;;;;5010973;28;20422;-72
2024/01/07 12:24:18;;;;;;;1999.90;999.90;;;;;;;;;;5006259;28;20445;-71
2024/01/07 12:27:07;;;;;;;1999.90;999.90;;;;;;;;;;5014614;28;20615;-71
2024/01/07 12:29:55;;;;;;;1999.90;999.90;;;;;;;;;;5014766;28;20218;-70
2024/01/07 12:32:41;;;;;;;1999.90;999.90;;;;;;;;;;5014611;28;20960;-70
2024/01/07 12:35:27;;;;;;;1999.90;999.90;;;;;;;;;;5014205;28;20446;-71
2024/01/07 12:38:12;;;;;;;1999.90;999.90;;;;;;;;;;5014903;28;21154;-71
2024/01/07 12:40:57;;;;;;;1999.90;999.90;;;;;;;;;;5013971;28;20434;-71
2024/01/07 12:43:42;;;;;;;1999.90;999.90;;;;;;;;;;5006832;28;20400;-71
2024/01/07 12:46:28;;;;;;;1999.90;999.90;;;;;;;;;;5013217;28;20216;-71
2024/01/07 12:49:14;;;;;;;1999.90;999.90;;;;;;;;;;5014275;28;20806;-72
2024/01/07 12:51:59;;;;;;;1999.90;999.90;;;;;;;;;;5012262;28;20905;-71
2024/01/07 12:54:44;;;;;;;1999.90;999.90;;;;;;;;;;5013910;28;20499;-72
2024/01/07 12:57:29;;;;;;;1999.90;999.90;;;;;;;;;;5014075;28;20507;-72
2024/01/07 13:00:14;;;;;;;1999.90;999.90;;;;;;;;;;5013669;28;20504;-72
2024/01/07 13:02:59;;;;;;;1999.90;999.90;;;;;;;;;;5013558;28;20807;-72
2024/01/07 13:05:48;;;;;;;1999.90;999.90;;;;;;;;;;5008057;28;20479;-72
2024/01/07 13:08:33;;;;;;;1999.90;999.90;;;;;;;;;;5001438;28;20466;-71
2024/01/07 13:11:18;;;;;;;1999.90;999.90;;;;;;;;;;5008291;28;20450;-72
2024/01/07 13:14:03;;;;;;;1999.90;999.90;;;;;;;;;;5007562;28;20445;-71
2024/01/07 13:16:48;;;;;;;1999.90;999.90;;;;;;;;;;5009633;28;20447;-71
2024/01/07 13:19:32;;;;;;;1999.90;999.90;;;;;;;;;;5006764;28;20824;-70
2024/01/07 13:22:19;;;;;;;1999.90;999.90;;;;;;;;;;5005770;28;20535;-71
2024/01/07 13:25:04;;;;;;;1999.90;999.90;;;;;;;;;;5010995;28;20446;-71
2024/01/07 13:27:49;;;;;;;1999.90;999.90;;;;;;;;;;5009595;28;20573;-71
2024/01/07 13:30:34;;;;;;;1999.90;999.90;;;;;;;;;;5010450;28;20448;-71
2024/01/07 13:33:19;;;;;;;1999.90;999.90;;;;;;;;;;5008660;28;20832;-70
2024/01/07 13:36:08;;;;;;;1999.90;999.90;;;;;;;;;;5010771;28;20966;-71
2024/01/07 13:38:55;;;;;;;1999.90;999.90;;;;;;;;;;5011510;28;20419;-71
2024/01/07 13:41:40;;;;;;;1999.90;999.90;;;;;;;;;;5011450;28;20442;-71
2024/01/07 13:44:25;;;;;;;1999.90;999.90;;;;;;;;;;5012973;28;20447;-71
2024/01/07 13:47:10;;;;;;;1999.90;999.90;;;;;;;;;;5013248;28;20474;-70
2024/01/07 13:49:55;;;;;;;1999.90;999.90;;;;;;;;;;5012471;28;21040;-71
2024/01/07 13:52:41;;;;;;;1999.90;999.90;;;;;;;;;;5004520;28;20454;-70
2024/01/07 13:55:27;;;;;;;1999.90;999.90;;;;;;;;;;5009984;28;20486;-71
2024/01/07 13:58:12;;;;;;;1999.90;999.90;;;;;;;;;;5008640;28;20567;-71
2024/01/07 14:00:57;;;;;;;1999.90;999.90;;;;;;;;;;5011611;28;20459;-71
2024/01/07 14:03:43;;;;;;;1999.90;999.90;;;;;;;;;;5002236;28;20256;-71
2024/01/07 14:06:28;;;;;;;1999.90;999.90;;;;;;;;;;5013556;28;20447;-71
2024/01/07 14:09:13;;;;;;;1999.90;999.90;;;;;;;;;;5011063;28;20213;-70
2024/01/07 14:11:59;;;;;;;1999.90;999.90;;;;;;;;;;5010257;28;20588;-70
2024/01/07 14:14:44;;;;;;;1999.90;999.90;;;;;;;;;;5006278;28;20842;-72
2024/01/07 14:17:30;;;;;;;1999.90;999.90;;;;;;;;;;5010655;28;20424;-73
2024/01/07 14:20:15;;;;;;;1999.90;999.90;;;;;;;;;;5009965;28;20468;-73
2024/01/07 14:23:00;;;;;;;1999.90;999.90;;;;;;;;;;5030971;28;20279;-73
2024/01/07 14:25:45;;;;;;;1999.90;999.90;;;;;;;;;;5030786;28;20441;-72
2024/01/07 14:28:31;;;;;;;1999.90;999.90;;;;;;;;;;5032302;28;20411;-73
2024/01/07 14:31:16;;;;;;;1999.90;999.90;;;;;;;;;;5032367;28;20412;-73
2024/01/07 14:34:02;;;;;;;1999.90;999.90;;;;;;;;;;5032067;28;20452;-73
2024/01/07 14:36:47;;;;;;;1999.90;999.90;;;;;;;;;;5032226;28;20809;-73
2024/01/07 14:39:32;;;;;;;1999.90;999.90;;;;;;;;;;5032226;28;20415;-73
2024/01/07 14:42:17;;;;;;;1999.90;999.90;;;;;;;;;;5032162;28;20513;-73
2024/01/07 14:45:04;;;;;;;1999.90;999.90;;;;;;;;;;5032349;28;20442;-73
2024/01/07 14:47:49;;;;;;;1999.90;999.90;;;;;;;;;;5031920;28;20472;-73
2024/01/07 14:50:33;;;;;;;1999.90;999.90;;;;;;;;;;5032043;28;20470;-73
2024/01/07 14:53:18;;;;;;;1999.90;999.90;;;;;;;;;;5031943;28;20214;-73
2024/01/07 14:56:04;;;;;;;1999.90;999.90;;;;;;;;;;5031811;28;20947;-73
2024/01/07 14:58:49;;;;;;;1999.90;999.90;;;;;;;;;;5032032;28;20412;-72
2024/01/07 15:01:35;;;;;;;1999.90;999.90;;;;;;;;;;5031809;28;20222;-72
2024/01/07 15:04:20;;;;;;;1999.90;999.90;;;;;;;;;;5030865;28;20529;-72
2024/01/07 15:07:05;;;;;;;1999.90;999.90;;;;;;;;;;5031759;28;20241;-72
2024/01/07 15:09:50;;;;;;;1999.90;999.90;;;;;;;;;;5031800;28;20419;-73
2024/01/07 15:12:36;;;;;;;1999.90;999.90;;;;;;;;;;5031855;28;20699;-73
2024/01/07 15:15:22;;;;;;;1999.90;999.90;;;;;;;;;;5031429;28;20522;-73
2024/01/07 15:18:08;;;;;;;1999.90;999.90;;;;;;;;;;5031596;28;20416;-73
2024/01/07 15:20:53;;;;;;;1999.90;999.90;;;;;;;;;;5031788;28;20417;-73
2024/01/07 15:23:38;;;;;;;1999.90;999.90;;;;;;;;;;5031601;28;20531;-73
2024/01/07 15:26:23;;;;;;;1999.90;999.90;;;;;;;;;;5031659;28;20425;-73
2024/01/07 15:29:08;;;;;;;1999.90;999.90;;;;;;;;;;5031932;28;20418;-72
2024/01/07 15:31:52;;;;;;;1999.90;999.90;;;;;;;;;;5030203;28;20741;-72
2024/01/07 15:34:39;;;;;;;1999.90;999.90;;;;;;;;;;5031355;28;20233;-73
2024/01/07 15:37:24;;;;;;;1999.90;999.90;;;;;;;;;;5031927;28;20206;-73
2024/01/07 15:40:09;;;;;;;1999.90;999.90;;;;;;;;;;5035617;28;20291;-73
2024/01/07 15:42:54;;;;;;;1999.90;999.90;;;;;;;;;;5035276;28;20418;-73
2024/01/07 15:45:38;;;;;;;1999.90;999.90;;;;;;;;;;5035247;28;20474;-73
2024/01/07 15:48:24;;;;;;;1999.90;999.90;;;;;;;;;;5035405;28;20516;-73
2024/01/07 15:51:10;;;;;;;1999.90;999.90;;;;;;;;;;5035399;28;20934;-73
2024/01/07 15:53:55;;;;;;;1999.90;999.90;;;;;;;;;;5034987;28;20449;-72
2024/01/07 15:56:40;;;;;;;1999.90;999.90;;;;;;;;;;5035347;28;20492;-73
2024/01/07 15:59:25;;;;;;;1999.90;999.90;;;;;;;;;;5035300;28;20499;-73
2024/01/07 16:02:10;;;;;;;1999.90;999.90;;;;;;;;;;5035096;28;20455;-73
2024/01/07 16:04:55;;;;;;;1999.90;999.90;;;;;;;;;;5034887;28;20975;-73
2024/01/07 16:07:41;;;;;;;1999.90;999.90;;;;;;;;;;5034735;28;20460;-73
2024/01/07 16:10:26;;;;;;;1999.90;999.90;;;;;;;;;;5034933;28;20940;-73
2024/01/07 16:13:11;;;;;;;1999.90;999.90;;;;;;;;;;5034951;28;20421;-73
2024/01/07 16:15:56;;;;;;;1999.90;999.90;;;;;;;;;;5034382;28;20433;-73
2024/01/07 16:18:41;;;;;;;1999.90;999.90;;;;;;;;;;5034870;28;20932;-73
2024/01/07 16:21:26;;;;;;;1999.90;999.90;;;;;;;;;;5034799;28;20481;-73
2024/01/07 16:24:12;;;;;;;1999.90;999.90;;;;;;;;;;5034494;28;20439;-73
2024/01/07 16:26:57;;;;;;;1999.90;999.90;;;;;;;;;;5034379;28;20507;-73
2024/01/07 16:29:41;;;;;;;1999.90;999.90;;;;;;;;;;5034941;28;20409;-73
2024/01/07 16:32:27;;;;;;;1999.90;999.90;;;;;;;;;;5036216;28;20247;-73
2024/01/07 16:35:12;;;;;;;1999.90;999.90;;;;;;;;;;5034228;28;20530;-73
2024/01/07 16:37:57;;;;;;;1999.90;999.90;;;;;;;;;;5034679;28;20487;-73
2024/01/07 16:40:43;;;;;;;1999.90;999.90;;;;;;;;;;5034621;28;20422;-73
2024/01/07 16:43:31;;;;;;;1999.90;999.90;;;;;;;;;;5034542;28;21054;-73
2024/01/07 16:46:16;;;;;;;1999.90;999.90;;;;;;;;;;5034525;28;20422;-73
2024/01/07 16:49:01;;;;;;;1999.90;999.90;;;;;;;;;;5033796;28;20538;-73
2024/01/07 16:51:46;;;;;;;1999.90;999.90;;;;;;;;;;5035115;28;20956;-73
2024/01/07 16:54:31;;;;;;;1999.90;999.90;;;;;;;;;;5037316;28;20446;-73
2024/01/07 16:57:17;;;;;;;1999.90;999.90;;;;;;;;;;5036596;28;20467;-72
2024/01/07 17:00:03;;;;;;;1999.90;999.90;;;;;;;;;;5034312;28;20693;-73
2024/01/07 17:02:48;;;;;;;1999.90;999.90;;;;;;;;;;5034383;28;20426;-73
2024/01/07 17:05:32;;;;;;;1999.90;999.90;;;;;;;;;;5040568;28;20861;-73
2024/01/07 17:08:17;;;;;;;1999.90;999.90;;;;;;;;;;5040920;28;20518;-73
2024/01/07 17:11:02;;;;;;;1999.90;999.90;;;;;;;;;;5039870;28;21145;-73
2024/01/07 17:13:49;;;;;;;1999.90;999.90;;;;;;;;;;5033625;28;21020;-72
2024/01/07 17:16:34;;;;;;;1999.90;999.90;;;;;;;;;;5034020;28;20464;-72
2024/01/07 17:19:19;;;;;;;1999.90;999.90;;;;;;;;;;5033841;28;20876;-73
2024/01/07 17:22:04;;;;;;;1999.90;999.90;;;;;;;;;;5033529;28;20409;-73
2024/01/07 17:24:49;;;;;;;1999.90;999.90;;;;;;;;;;5033394;28;20575;-73
2024/01/07 17:27:34;;;;;;;1999.90;999.90;;;;;;;;;;5033411;28;21009;-73
2024/01/07 17:30:26;;;;;;;1999.90;999.90;;;;;;;;;;5033533;28;20414;-72
2024/01/07 17:33:11;;;;;;;1999.90;999.90;;;;;;;;;;5033493;28;20568;-73
2024/01/07 17:35:56;;;;;;;1999.90;999.90;;;;;;;;;;5033193;28;20417;-73
2024/01/07 17:38:42;;;;;;;1999.90;999.90;;;;;;;;;;5033658;28;20416;-72
2024/01/07 17:41:27;;;;;;;1999.90;999.90;;;;;;;;;;5033320;28;20465;-73
2024/01/07 17:44:12;;;;;;;1999.90;999.90;;;;;;;;;;5032955;28;20571;-72
2024/01/07 17:46:59;;;;;;;1999.90;999.90;;;;;;;;;;5033296;28;20781;-73
2024/01/07 17:49:44;;;;;;;1999.90;999.90;;;;;;;;;;5033200;28;20416;-73
2024/01/07 17:52:29;;;;;;;1999.90;999.90;;;;;;;;;;5033282;28;20422;-73
2024/01/07 17:55:15;;;;;;;1999.90;999.90;;;;;;;;;;5032923;28;20576;-73
2024/01/07 17:58:00;;;;;;;1999.90;999.90;;;;;;;;;;5033099;28;20415;-73
2024/01/07 18:00:45;;;;;;;1999.90;999.90;;;;;;;;;;5032687;28;20463;-73
2024/01/07 18:03:31;;;;;;;1999.90;999.90;;;;;;;;;;5032699;28;20799;-73
2024/01/07 18:06:16;;;;;;;1999.90;999.90;;;;;;;;;;5032842;28;20479;-73
2024/01/07 18:09:01;;;;;;;1999.90;999.90;;;;;;;;;;5032595;28;20459;-73
2024/01/07 18:11:46;;;;;;;1999.90;999.90;;;;;;;;;;5032928;28;20417;-73
2024/01/07 18:14:31;;;;;;;1999.90;999.90;;;;;;;;;;5032450;28;20456;-73
2024/01/07 18:17:16;;;;;;;1999.90;999.90;;;;;;;;;;5033193;28;20937;-72
2024/01/07 18:20:02;;;;;;;1999.90;999.90;;;;;;;;;;5032508;28;20910;-73
2024/01/07 18:22:47;;;;;;;1999.90;999.90;;;;;;;;;;5032060;28;20651;-72
2024/01/07 18:25:32;;;;;;;1999.90;999.90;;;;;;;;;;5032521;28;20239;-73
2024/01/07 18:28:17;;;;;;;1999.90;999.90;;;;;;;;;;5032345;28;20474;-72
2024/01/07 18:31:02;;;;;;;1999.90;999.90;;;;;;;;;;5032522;28;20408;-73
2024/01/07 18:33:47;;;;;;;1999.90;999.90;;;;;;;;;;5032311;28;20573;-71
2024/01/07 18:36:33;;;;;;;1999.90;999.90;;;;;;;;;;5032444;28;20778;-73
2024/01/07 18:39:18;;;;;;;1999.90;999.90;;;;;;;;;;5032599;28;20468;-73
2024/01/07 18:42:03;;;;;;;1999.90;999.90;;;;;;;;;;5032338;28;20773;-73
2024/01/07 18:44:48;;;;;;;1999.90;999.90;;;;;;;;;;5032080;28;20510;-73
2024/01/07 18:47:33;;;;;;;1999.90;999.90;;;;;;;;;;5032295;28;20915;-73
2024/01/07 18:50:19;;;;;;;1999.90;999.90;;;;;;;;;;5032210;28;20477;-73
2024/01/07 18:53:05;;;;;;;1999.90;999.90;;;;;;;;;;5032124;28;20432;-73
2024/01/07 18:55:51;;;;;;;1999.90;999.90;;;;;;;;;;5031807;28;20564;-73
2024/01/07 18:58:38;;;;;;;1999.90;999.90;;;;;;;;;;5032123;28;20417;-73
2024/01/07 19:01:23;;;;;;;1999.90;999.90;;;;;;;;;;5032106;28;20660;-73
2024/01/07 19:04:08;;;;;;;1999.90;999.90;;;;;;;;;;5031735;28;20441;-73
2024/01/07 19:06:54;;;;;;;1999.90;999.90;;;;;;;;;;5032208;28;20557;-73
2024/01/07 19:09:41;;;;;;;1999.90;999.90;;;;;;;;;;5031680;28;20550;-73
2024/01/07 19:12:26;;;;;;;1999.90;999.90;;;;;;;;;;5031642;28;20428;-73
2024/01/07 19:15:10;;;;;;;1999.90;999.90;;;;;;;;;;5031576;28;20459;-73
2024/01/07 19:17:57;;;;;;;1999.90;999.90;;;;;;;;;;5031871;28;20411;-73
2024/01/07 19:20:42;;;;;;;1999.90;999.90;;;;;;;;;;5031658;28;20420;-72
2024/01/07 19:23:28;;;;;;;1999.90;999.90;;;;;;;;;;5011588;28;21090;-73
2024/01/07 19:26:14;;;;;;;1999.90;999.90;;;;;;;;;;5004689;28;20213;-74
2024/01/07 19:28:59;;;;;;;1999.90;999.90;;;;;;;;;;5012109;28;20464;-71
2024/01/07 19:31:44;;;;;;;1999.90;999.90;;;;;;;;;;5013578;28;21044;-73
2024/01/07 19:34:29;;;;;;;1999.90;999.90;;;;;;;;;;5012531;28;20537;-72
2024/01/07 19:37:15;;;;;;;1999.90;999.90;;;;;;;;;;5009266;28;20456;-72